Time;durP1;ratioP1;P1;durP2;ratioP2;P2;SDS_P1;SDS_P2;PMS_P1;PMS_P2;Temp;Humidity;BMP_temperature;BMP_pressure;BME280_temperature;BME280_humidity;BME280_pressure;Samples;Min_cycle;Max_cycle;Signal;HPM_P1;HPM_P2
2023/06/25 00:00:17;;;;;;;7.88;4.43;;;;;;;;;;5096061;28;20035;-70
2023/06/25 00:03:02;;;;;;;7.57;4.75;;;;;;;;;;5095029;28;20379;-64
2023/06/25 00:05:48;;;;;;;7.55;4.90;;;;;;;;;;5095215;28;20028;-68
2023/06/25 00:08:33;;;;;;;7.57;4.55;;;;;;;;;;5095037;28;20360;-68
2023/06/25 00:11:19;;;;;;;9.27;5.22;;;;;;;;;;5095917;28;20047;-68
2023/06/25 00:14:05;;;;;;;5.78;3.92;;;;;;;;;;5094980;28;20469;-69
2023/06/25 00:16:57;;;;;;;9.45;5.05;;;;;;;;;;5093694;28;20043;-67
2023/06/25 00:19:43;;;;;;;7.63;3.80;;;;;;;;;;5094502;28;20100;-61
2023/06/25 00:22:29;;;;;;;7.93;4.03;;;;;;;;;;5094872;28;20030;-59
2023/06/25 00:25:15;;;;;;;6.55;4.57;;;;;;;;;;5094728;28;20385;-68
2023/06/25 00:28:00;;;;;;;7.07;4.55;;;;;;;;;;5093741;28;20024;-68
2023/06/25 00:30:46;;;;;;;6.35;4.32;;;;;;;;;;5094652;28;20400;-69
2023/06/25 00:33:35;;;;;;;7.15;4.40;;;;;;;;;;5094533;28;20490;-68
2023/06/25 00:36:20;;;;;;;6.38;3.88;;;;;;;;;;5094460;28;20035;-67
2023/06/25 00:39:06;;;;;;;7.13;5.18;;;;;;;;;;5094365;28;20490;-66
2023/06/25 00:41:52;;;;;;;8.02;4.65;;;;;;;;;;5094444;28;20027;-63
2023/06/25 00:44:41;;;;;;;8.43;5.10;;;;;;;;;;5093935;28;20498;-64
2023/06/25 00:47:26;;;;;;;8.55;4.20;;;;;;;;;;5094376;28;20046;-64
2023/06/25 00:50:12;;;;;;;11.25;5.30;;;;;;;;;;5094296;28;20040;-63
2023/06/25 00:52:58;;;;;;;7.25;5.00;;;;;;;;;;5094334;28;20165;-64
2023/06/25 00:55:50;;;;;;;8.00;4.78;;;;;;;;;;5092149;28;20031;-64
2023/06/25 00:58:37;;;;;;;7.15;4.70;;;;;;;;;;5078852;28;20048;-71
2023/06/25 01:01:26;;;;;;;7.60;4.43;;;;;;;;;;5093491;28;20020;-59
2023/06/25 01:04:19;;;;;;;7.63;4.40;;;;;;;;;;5094070;28;20036;-59
2023/06/25 01:07:10;;;;;;;8.48;4.60;;;;;;;;;;5093300;28;20040;-62
2023/06/25 01:09:57;;;;;;;9.10;5.25;;;;;;;;;;5093892;28;20081;-62
2023/06/25 01:12:42;;;;;;;7.47;4.53;;;;;;;;;;5092920;28;20031;-60
2023/06/25 01:15:28;;;;;;;6.75;4.03;;;;;;;;;;5094064;28;20038;-66
2023/06/25 01:18:14;;;;;;;9.82;5.63;;;;;;;;;;5093866;28;20103;-72
2023/06/25 01:21:00;;;;;;;12.60;5.10;;;;;;;;;;5093061;28;20115;-71
2023/06/25 01:23:46;;;;;;;8.43;4.70;;;;;;;;;;5092291;28;20368;-73
2023/06/25 01:26:31;;;;;;;6.82;3.97;;;;;;;;;;5094312;28;20039;-72
2023/06/25 01:29:17;;;;;;;7.45;4.85;;;;;;;;;;5093563;28;20032;-72
2023/06/25 01:32:02;;;;;;;6.88;4.13;;;;;;;;;;5093757;28;20463;-71
2023/06/25 01:34:48;;;;;;;6.30;4.03;;;;;;;;;;5093560;28;20446;-72
2023/06/25 01:37:33;;;;;;;7.10;4.40;;;;;;;;;;5093472;28;20098;-72
2023/06/25 01:40:19;;;;;;;6.22;3.95;;;;;;;;;;5077692;28;20036;-70
2023/06/25 01:43:05;;;;;;;6.35;4.30;;;;;;;;;;5092083;28;20024;-72
2023/06/25 01:45:50;;;;;;;5.88;4.22;;;;;;;;;;5092323;28;20424;-71
2023/06/25 01:48:36;;;;;;;7.07;4.32;;;;;;;;;;5093081;28;20028;-73
2023/06/25 01:51:22;;;;;;;7.25;4.10;;;;;;;;;;5093393;28;20032;-72
2023/06/25 01:54:08;;;;;;;8.27;4.97;;;;;;;;;;5093665;28;20035;-72
2023/06/25 01:56:54;;;;;;;5.93;4.10;;;;;;;;;;5093048;28;20028;-63
2023/06/25 01:59:39;;;;;;;5.78;3.83;;;;;;;;;;5092733;28;20035;-61
2023/06/25 02:02:25;;;;;;;8.52;4.72;;;;;;;;;;5093233;28;20399;-62
2023/06/25 02:05:10;;;;;;;8.30;4.85;;;;;;;;;;5093711;28;20039;-61
2023/06/25 02:07:56;;;;;;;8.00;5.00;;;;;;;;;;5091912;28;20552;-61
2023/06/25 02:10:42;;;;;;;7.32;4.40;;;;;;;;;;5092728;28;20081;-65
2023/06/25 02:13:27;;;;;;;5.90;4.05;;;;;;;;;;5093243;28;20486;-65
2023/06/25 02:16:13;;;;;;;6.95;4.03;;;;;;;;;;5092973;28;20024;-64
2023/06/25 02:18:58;;;;;;;8.23;4.35;;;;;;;;;;5093153;28;20390;-64
2023/06/25 02:21:44;;;;;;;5.95;4.07;;;;;;;;;;5092873;28;20028;-64
2023/06/25 02:24:29;;;;;;;7.07;4.57;;;;;;;;;;5093046;28;20036;-63
2023/06/25 02:27:15;;;;;;;7.57;4.13;;;;;;;;;;5077075;28;20081;-64
2023/06/25 02:30:00;;;;;;;6.25;3.90;;;;;;;;;;5092914;28;20340;-72
2023/06/25 02:32:46;;;;;;;7.28;4.38;;;;;;;;;;5092905;28;20024;-69
2023/06/25 02:35:31;;;;;;;8.57;4.15;;;;;;;;;;5092806;28;20382;-68
2023/06/25 02:38:17;;;;;;;7.50;4.32;;;;;;;;;;5092876;28;20040;-68
2023/06/25 02:41:02;;;;;;;6.90;4.35;;;;;;;;;;5092762;28;20059;-69
2023/06/25 02:43:48;;;;;;;7.90;4.82;;;;;;;;;;5076963;28;20502;-69
2023/06/25 02:46:35;;;;;;;6.38;4.38;;;;;;;;;;5092430;28;20080;-69
2023/06/25 02:49:20;;;;;;;7.78;4.63;;;;;;;;;;5092545;28;20432;-60
2023/06/25 02:52:06;;;;;;;5.80;4.07;;;;;;;;;;5092982;28;20085;-64
2023/06/25 02:54:52;;;;;;;7.50;4.50;;;;;;;;;;5091395;28;20024;-64
2023/06/25 02:57:37;;;;;;;6.90;4.50;;;;;;;;;;5092712;28;20039;-65
2023/06/25 03:00:23;;;;;;;5.95;4.03;;;;;;;;;;5092642;28;20374;-64
2023/06/25 03:03:08;;;;;;;6.82;3.92;;;;;;;;;;5092695;28;20031;-64
2023/06/25 03:05:54;;;;;;;6.10;4.30;;;;;;;;;;5092591;28;20035;-65
2023/06/25 03:08:39;;;;;;;6.55;4.60;;;;;;;;;;5092532;28;20382;-65
2023/06/25 03:11:25;;;;;;;6.60;4.22;;;;;;;;;;5077528;28;20035;-66
2023/06/25 03:14:10;;;;;;;6.65;3.97;;;;;;;;;;5092490;28;20032;-64
2023/06/25 03:16:56;;;;;;;7.50;4.13;;;;;;;;;;5091905;28;20036;-66
2023/06/25 03:19:42;;;;;;;7.72;4.75;;;;;;;;;;5093469;28;20028;-65
2023/06/25 03:22:27;;;;;;;6.07;4.15;;;;;;;;;;5096227;28;20039;-66
2023/06/25 03:25:13;;;;;;;7.68;4.82;;;;;;;;;;5095865;28;20486;-65
2023/06/25 03:27:58;;;;;;;6.43;4.07;;;;;;;;;;5095703;28;20118;-69
2023/06/25 03:30:46;;;;;;;5.45;3.80;;;;;;;;;;5095974;28;20028;-69
2023/06/25 03:33:31;;;;;;;7.45;4.80;;;;;;;;;;5095343;28;20490;-69
2023/06/25 03:36:17;;;;;;;5.75;4.05;;;;;;;;;;5096130;28;20054;-69
2023/06/25 03:39:03;;;;;;;6.57;3.92;;;;;;;;;;5095812;28;20112;-68
2023/06/25 03:41:48;;;;;;;7.15;4.18;;;;;;;;;;5095345;28;20466;-69
2023/06/25 03:44:34;;;;;;;6.13;3.67;;;;;;;;;;5095803;28;20044;-64
2023/06/25 03:47:19;;;;;;;8.75;4.93;;;;;;;;;;5095523;28;20030;-61
2023/06/25 03:50:05;;;;;;;9.20;4.47;;;;;;;;;;5096057;28;20043;-61
2023/06/25 03:52:51;;;;;;;6.75;4.90;;;;;;;;;;5094302;28;20024;-61
2023/06/25 03:55:36;;;;;;;5.78;3.90;;;;;;;;;;5095681;28;20530;-61
2023/06/25 03:58:22;;;;;;;7.13;3.97;;;;;;;;;;5095545;28;20020;-61
2023/06/25 04:01:07;;;;;;;7.38;4.60;;;;;;;;;;5095475;28;20364;-65
2023/06/25 04:03:53;;;;;;;7.57;4.53;;;;;;;;;;5095420;28;20046;-71
2023/06/25 04:06:38;;;;;;;6.00;4.30;;;;;;;;;;5095253;28;20032;-70
2023/06/25 04:09:24;;;;;;;6.63;4.50;;;;;;;;;;5095127;28;20487;-70
2023/06/25 04:12:09;;;;;;;7.43;4.53;;;;;;;;;;5094519;28;20031;-69
2023/06/25 04:14:55;;;;;;;7.35;4.72;;;;;;;;;;5094977;28;20029;-70
2023/06/25 04:17:41;;;;;;;8.15;4.53;;;;;;;;;;5094899;28;20531;-71
2023/06/25 04:20:27;;;;;;;7.30;4.38;;;;;;;;;;5093978;28;20035;-65
2023/06/25 04:23:13;;;;;;;6.32;4.15;;;;;;;;;;5095459;28;20032;-68
2023/06/25 04:25:58;;;;;;;6.38;4.38;;;;;;;;;;5094936;28;20513;-69
2023/06/25 04:28:44;;;;;;;7.68;4.20;;;;;;;;;;5094686;28;20081;-70
2023/06/25 04:31:29;;;;;;;7.35;4.07;;;;;;;;;;5093648;28;20031;-70
2023/06/25 04:34:15;;;;;;;7.95;4.75;;;;;;;;;;5094337;28;20024;-69
2023/06/25 04:37:01;;;;;;;6.53;3.78;;;;;;;;;;5094655;28;20028;-69
2023/06/25 04:39:46;;;;;;;6.70;4.68;;;;;;;;;;5094726;28;20024;-61
2023/06/25 04:42:32;;;;;;;8.07;4.88;;;;;;;;;;5094690;28;20030;-71
2023/06/25 04:45:18;;;;;;;8.10;4.47;;;;;;;;;;5094711;28;20067;-71
2023/06/25 04:48:04;;;;;;;7.68;4.90;;;;;;;;;;5093905;28;20508;-71
2023/06/25 04:50:50;;;;;;;6.72;5.15;;;;;;;;;;5093014;28;20032;-70
2023/06/25 04:53:35;;;;;;;8.50;5.53;;;;;;;;;;5093568;28;20024;-71
2023/06/25 04:56:21;;;;;;;8.18;4.45;;;;;;;;;;5094414;28;20522;-61
2023/06/25 04:59:06;;;;;;;8.80;4.70;;;;;;;;;;5093732;28;20027;-67
2023/06/25 05:01:52;;;;;;;7.63;5.32;;;;;;;;;;5093413;28;20031;-66
2023/06/25 05:04:37;;;;;;;7.68;4.20;;;;;;;;;;5094814;28;20034;-66
2023/06/25 05:07:23;;;;;;;6.35;4.18;;;;;;;;;;5094185;28;20031;-66
2023/06/25 05:10:09;;;;;;;6.90;4.65;;;;;;;;;;5094040;28;20028;-66
2023/06/25 05:12:54;;;;;;;6.65;3.95;;;;;;;;;;5094070;28;20028;-66
2023/06/25 05:15:41;;;;;;;6.20;4.22;;;;;;;;;;5078155;28;20020;-68
2023/06/25 05:18:26;;;;;;;6.95;4.30;;;;;;;;;;5093918;28;20099;-64
2023/06/25 05:21:12;;;;;;;6.00;4.10;;;;;;;;;;5093951;28;20042;-65
2023/06/25 05:23:58;;;;;;;7.88;4.80;;;;;;;;;;5093613;28;20031;-65
2023/06/25 05:26:44;;;;;;;7.43;4.85;;;;;;;;;;5092910;28;20118;-65
2023/06/25 05:29:29;;;;;;;7.95;4.65;;;;;;;;;;5092404;28;20364;-64
2023/06/25 05:32:16;;;;;;;8.00;4.15;;;;;;;;;;5093745;28;20085;-65
2023/06/25 05:35:02;;;;;;;7.25;4.55;;;;;;;;;;5093697;28;20024;-60
2023/06/25 05:37:47;;;;;;;7.15;4.10;;;;;;;;;;5094120;28;20110;-65
2023/06/25 05:40:33;;;;;;;8.43;4.30;;;;;;;;;;5093620;28;20016;-65
2023/06/25 05:43:18;;;;;;;6.07;4.05;;;;;;;;;;5093029;28;20078;-65
2023/06/25 05:46:04;;;;;;;6.60;3.92;;;;;;;;;;5093408;28;20099;-65
2023/06/25 05:48:49;;;;;;;6.95;4.35;;;;;;;;;;5093332;28;20024;-64
2023/06/25 05:51:35;;;;;;;6.15;4.07;;;;;;;;;;5093260;28;20027;-72
2023/06/25 05:54:20;;;;;;;6.60;4.57;;;;;;;;;;5093350;28;20024;-67
2023/06/25 05:57:06;;;;;;;6.85;4.43;;;;;;;;;;5093280;28;20466;-68
2023/06/25 05:59:51;;;;;;;7.00;4.53;;;;;;;;;;5093195;28;20032;-68
2023/06/25 06:02:37;;;;;;;6.90;4.30;;;;;;;;;;5093273;28;20035;-68
2023/06/25 06:05:23;;;;;;;7.00;4.72;;;;;;;;;;5093140;28;20031;-67
2023/06/25 06:08:08;;;;;;;8.68;4.50;;;;;;;;;;5092637;28;20067;-68
2023/06/25 06:10:54;;;;;;;7.25;4.28;;;;;;;;;;5093037;28;20025;-67
2023/06/25 06:13:40;;;;;;;7.20;4.72;;;;;;;;;;5093004;28;20036;-61
2023/06/25 06:16:25;;;;;;;7.00;4.80;;;;;;;;;;5093096;28;20059;-61
2023/06/25 06:19:11;;;;;;;6.38;4.57;;;;;;;;;;5092889;28;20024;-61
2023/06/25 06:21:56;;;;;;;7.47;4.53;;;;;;;;;;5092957;28;20024;-61
2023/06/25 06:24:42;;;;;;;10.02;4.78;;;;;;;;;;5092954;28;20020;-61
2023/06/25 06:27:27;;;;;;;5.70;4.18;;;;;;;;;;5091640;28;20027;-61
2023/06/25 06:30:13;;;;;;;6.20;4.13;;;;;;;;;;5092385;28;20473;-64
2023/06/25 06:32:59;;;;;;;5.72;3.85;;;;;;;;;;5092880;28;20081;-66
2023/06/25 06:35:44;;;;;;;6.50;4.15;;;;;;;;;;5092879;28;20055;-66
2023/06/25 06:38:30;;;;;;;6.60;4.07;;;;;;;;;;5092818;28;20032;-65
2023/06/25 06:41:15;;;;;;;6.72;4.47;;;;;;;;;;5092857;28;20368;-66
2023/06/25 06:44:10;;;;;;;7.55;4.22;;;;;;;;;;5092853;28;20032;-65
2023/06/25 06:46:56;;;;;;;5.63;4.10;;;;;;;;;;5091714;28;20024;-61
2023/06/25 06:49:41;;;;;;;5.70;4.28;;;;;;;;;;5092677;28;20140;-71
2023/06/25 06:52:27;;;;;;;5.88;4.57;;;;;;;;;;5092795;28;20050;-72
2023/06/25 06:55:13;;;;;;;6.47;3.97;;;;;;;;;;5095090;28;20158;-71
2023/06/25 06:57:58;;;;;;;5.05;3.75;;;;;;;;;;5096552;28;20043;-72
2023/06/25 07:00:44;;;;;;;6.97;4.40;;;;;;;;;;5095614;28;20032;-72
2023/06/25 07:03:29;;;;;;;6.13;4.18;;;;;;;;;;5096304;28;20020;-71
2023/06/25 07:06:15;;;;;;;7.65;4.95;;;;;;;;;;5096737;28;20360;-62
2023/06/25 07:09:00;;;;;;;6.18;4.00;;;;;;;;;;5096267;28;20067;-61
2023/06/25 07:11:46;;;;;;;6.57;4.38;;;;;;;;;;5095339;28;20122;-60
2023/06/25 07:14:31;;;;;;;7.07;4.60;;;;;;;;;;5096165;28;20420;-61
2023/06/25 07:17:17;;;;;;;6.55;4.53;;;;;;;;;;5095725;28;20111;-61
2023/06/25 07:20:03;;;;;;;7.07;5.13;;;;;;;;;;5080126;28;20020;-61
2023/06/25 07:22:48;;;;;;;6.78;4.47;;;;;;;;;;5096066;28;20546;-61
2023/06/25 07:25:35;;;;;;;8.13;4.22;;;;;;;;;;5095862;28;20044;-68
2023/06/25 07:28:21;;;;;;;6.60;4.53;;;;;;;;;;5096254;28;20123;-68
2023/06/25 07:31:06;;;;;;;9.77;5.07;;;;;;;;;;5095747;28;20028;-70
2023/06/25 07:33:52;;;;;;;6.95;4.15;;;;;;;;;;5095979;28;20035;-68
2023/06/25 07:36:37;;;;;;;8.10;4.53;;;;;;;;;;5095862;28;20471;-68
2023/06/25 07:39:25;;;;;;;8.68;4.32;;;;;;;;;;5095610;28;20028;-69
2023/06/25 07:42:11;;;;;;;6.43;4.22;;;;;;;;;;5095515;28;20032;-68
2023/06/25 07:44:56;;;;;;;6.50;4.38;;;;;;;;;;5095609;28;20067;-71
2023/06/25 07:47:42;;;;;;;9.38;4.78;;;;;;;;;;5095851;28;20107;-73
2023/06/25 07:50:27;;;;;;;9.77;4.80;;;;;;;;;;5081074;28;20036;-74
2023/06/25 07:53:13;;;;;;;8.85;5.10;;;;;;;;;;5095530;28;20390;-74
2023/06/25 07:55:58;;;;;;;8.73;5.20;;;;;;;;;;5094768;28;20016;-69
2023/06/25 07:58:44;;;;;;;8.75;5.68;;;;;;;;;;5095420;28;20528;-68
2023/06/25 08:01:30;;;;;;;7.57;5.07;;;;;;;;;;5095244;28;20020;-67
2023/06/25 08:04:15;;;;;;;10.48;6.28;;;;;;;;;;5095321;28;20074;-71
2023/06/25 08:07:01;;;;;;;7.82;5.70;;;;;;;;;;5095105;28;20073;-76
2023/06/25 08:09:48;;;;;;;9.25;4.90;;;;;;;;;;5094996;28;20463;-75
2023/06/25 08:12:33;;;;;;;9.63;5.15;;;;;;;;;;5078293;28;20024;-73
2023/06/25 08:15:20;;;;;;;7.78;5.43;;;;;;;;;;5081327;28;20032;-73
2023/06/25 08:18:05;;;;;;;8.32;5.63;;;;;;;;;;5095007;28;20024;-75
2023/06/25 08:20:51;;;;;;;7.45;5.40;;;;;;;;;;5094999;28;20032;-62
2023/06/25 08:23:37;;;;;;;7.63;4.72;;;;;;;;;;5093808;28;20089;-59
2023/06/25 08:26:22;;;;;;;10.35;5.90;;;;;;;;;;5094716;28;20032;-59
2023/06/25 08:29:08;;;;;;;8.50;4.97;;;;;;;;;;5094917;28;20060;-59
2023/06/25 08:31:53;;;;;;;9.00;4.43;;;;;;;;;;5094754;28;20095;-60
2023/06/25 08:34:39;;;;;;;8.25;5.47;;;;;;;;;;5094312;28;20032;-60
2023/06/25 08:37:25;;;;;;;6.45;4.20;;;;;;;;;;5094756;28;20024;-62
2023/06/25 08:40:12;;;;;;;8.68;5.88;;;;;;;;;;5094182;28;20387;-65
2023/06/25 08:42:57;;;;;;;9.55;5.35;;;;;;;;;;5094833;28;20055;-68
2023/06/25 08:45:43;;;;;;;8.38;5.60;;;;;;;;;;5094577;28;20386;-68
2023/06/25 08:48:31;;;;;;;8.02;5.40;;;;;;;;;;5094417;28;20016;-67
2023/06/25 08:51:20;;;;;;;7.97;4.65;;;;;;;;;;5094478;28;20081;-67
2023/06/25 08:54:05;;;;;;;7.70;5.07;;;;;;;;;;5094358;28;20063;-67
2023/06/25 08:56:51;;;;;;;9.57;6.13;;;;;;;;;;5094147;28;20482;-67
2023/06/25 08:59:36;;;;;;;7.97;5.47;;;;;;;;;;5094392;28;20025;-65
2023/06/25 09:02:22;;;;;;;7.28;4.80;;;;;;;;;;5094150;28;20024;-68
2023/06/25 09:05:10;;;;;;;8.93;5.25;;;;;;;;;;5094024;28;20032;-67
2023/06/25 09:07:56;;;;;;;7.07;5.30;;;;;;;;;;5094123;28;20030;-66
2023/06/25 09:10:41;;;;;;;9.18;5.35;;;;;;;;;;5093990;28;20040;-63
2023/06/25 09:13:27;;;;;;;7.63;4.97;;;;;;;;;;5093985;28;20490;-60
2023/06/25 09:16:13;;;;;;;7.43;4.88;;;;;;;;;;5094195;28;20387;-76
2023/06/25 09:19:01;;;;;;;8.02;4.65;;;;;;;;;;5077839;28;20081;-65
2023/06/25 09:21:48;;;;;;;7.00;4.72;;;;;;;;;;5093887;28;20130;-68
2023/06/25 09:24:34;;;;;;;7.63;4.78;;;;;;;;;;5094088;28;20437;-62
2023/06/25 09:27:20;;;;;;;8.38;4.50;;;;;;;;;;5077900;28;20032;-64
2023/06/25 09:30:09;;;;;;;7.22;4.43;;;;;;;;;;5093549;28;20489;-64
2023/06/25 09:32:55;;;;;;;6.47;4.40;;;;;;;;;;5093376;28;20051;-64
2023/06/25 09:35:41;;;;;;;6.45;4.47;;;;;;;;;;5093525;28;20099;-60
2023/06/25 09:38:26;;;;;;;7.40;4.65;;;;;;;;;;5077267;28;20077;-60
2023/06/25 09:41:14;;;;;;;7.35;4.65;;;;;;;;;;5093465;28;20053;-60
2023/06/25 09:44:00;;;;;;;7.75;4.70;;;;;;;;;;5092031;28;20028;-60
2023/06/25 09:46:47;;;;;;;7.80;5.07;;;;;;;;;;5092933;28;20415;-61
2023/06/25 09:49:33;;;;;;;8.45;5.47;;;;;;;;;;5093374;28;20032;-60
2023/06/25 09:52:20;;;;;;;6.53;4.90;;;;;;;;;;5093379;28;20039;-67
2023/06/25 09:55:07;;;;;;;6.72;4.60;;;;;;;;;;5093269;28;20367;-69
2023/06/25 09:57:53;;;;;;;7.40;4.63;;;;;;;;;;5091974;28;20059;-69
2023/06/25 10:00:39;;;;;;;7.50;4.38;;;;;;;;;;5093170;28;20024;-70
2023/06/25 10:03:25;;;;;;;8.15;5.18;;;;;;;;;;5078648;28;20020;-69
2023/06/25 10:06:10;;;;;;;8.60;4.97;;;;;;;;;;5079274;28;20024;-71
2023/06/25 10:08:56;;;;;;;9.05;5.55;;;;;;;;;;5077112;28;20028;-64
2023/06/25 10:11:48;;;;;;;7.95;5.15;;;;;;;;;;5093039;28;20035;-70
2023/06/25 10:14:40;;;;;;;8.18;5.05;;;;;;;;;;5092143;28;20040;-72
2023/06/25 10:17:26;;;;;;;11.07;5.68;;;;;;;;;;5092970;28;20028;-70
2023/06/25 10:20:11;;;;;;;11.60;6.45;;;;;;;;;;5092349;28;20024;-69
2023/06/25 10:23:19;;;;;;;10.48;6.22;;;;;;;;;;5093026;28;20028;-70
2023/06/25 10:26:05;;;;;;;9.03;6.23;;;;;;;;;;5093109;28;20103;-67
2023/06/25 10:28:51;;;;;;;9.98;5.97;;;;;;;;;;5094901;28;20063;-65
2023/06/25 10:31:37;;;;;;;13.07;5.50;;;;;;;;;;5097718;28;20028;-65
2023/06/25 10:34:24;;;;;;;10.05;5.40;;;;;;;;;;5097092;28;20027;-65
2023/06/25 10:37:12;;;;;;;8.15;5.03;;;;;;;;;;5095594;28;20411;-65
2023/06/25 10:40:01;;;;;;;10.25;6.03;;;;;;;;;;5096913;28;20050;-67
2023/06/25 10:42:47;;;;;;;14.98;6.13;;;;;;;;;;5096936;28;20135;-67
2023/06/25 10:45:33;;;;;;;9.38;5.68;;;;;;;;;;5096971;28;20020;-68
2023/06/25 10:48:19;;;;;;;9.35;5.25;;;;;;;;;;5096416;28;20032;-67
2023/06/25 10:51:04;;;;;;;9.55;5.82;;;;;;;;;;5095499;28;20016;-66
2023/06/25 10:53:50;;;;;;;9.02;6.07;;;;;;;;;;5096754;28;20493;-66
2023/06/25 10:56:36;;;;;;;9.20;6.35;;;;;;;;;;5097401;28;20383;-67
2023/06/25 10:59:22;;;;;;;8.23;5.75;;;;;;;;;;5096437;28;20086;-64
2023/06/25 11:02:12;;;;;;;9.07;5.47;;;;;;;;;;5096445;28;20028;-64
2023/06/25 11:05:01;;;;;;;8.60;6.00;;;;;;;;;;5095125;28;20483;-68
2023/06/25 11:07:54;;;;;;;12.43;6.05;;;;;;;;;;5095880;28;20043;-68
2023/06/25 11:10:40;;;;;;;10.77;6.15;;;;;;;;;;5095732;28;20476;-70
2023/06/25 11:13:25;;;;;;;9.10;6.07;;;;;;;;;;5096434;28;20035;-68
2023/06/25 11:16:11;;;;;;;9.57;5.88;;;;;;;;;;5079849;28;20020;-68
2023/06/25 11:18:57;;;;;;;9.60;6.13;;;;;;;;;;5096328;28;20248;-68
2023/06/25 11:21:43;;;;;;;10.57;6.38;;;;;;;;;;5096119;28;20031;-69
2023/06/25 11:24:32;;;;;;;8.10;5.43;;;;;;;;;;5081005;28;20096;-63
2023/06/25 11:27:25;;;;;;;12.13;7.88;;;;;;;;;;5094415;28;20356;-68
2023/06/25 11:30:11;;;;;;;9.73;6.47;;;;;;;;;;5095613;28;20032;-69
2023/06/25 11:33:07;;;;;;;9.13;5.30;;;;;;;;;;5095717;28;20081;-68
2023/06/25 11:36:04;;;;;;;8.02;5.25;;;;;;;;;;5095842;28;20426;-69
2023/06/25 11:38:50;;;;;;;8.70;6.10;;;;;;;;;;5095743;28;20028;-70
2023/06/25 11:41:35;;;;;;;8.32;5.38;;;;;;;;;;5095064;28;20123;-70
2023/06/25 11:44:21;;;;;;;9.48;6.30;;;;;;;;;;5095865;28;20024;-72
2023/06/25 11:47:06;;;;;;;9.32;6.28;;;;;;;;;;5079571;28;20035;-71
2023/06/25 11:49:53;;;;;;;8.45;5.35;;;;;;;;;;5095395;28;20032;-73
2023/06/25 11:52:39;;;;;;;10.70;6.53;;;;;;;;;;5095183;28;20039;-76
2023/06/25 11:55:24;;;;;;;8.45;6.03;;;;;;;;;;5094917;28;20020;-75
2023/06/25 11:58:10;;;;;;;7.68;5.40;;;;;;;;;;5096166;28;20027;-78
2023/06/25 12:00:56;;;;;;;8.38;6.00;;;;;;;;;;5094094;28;20383;-60
2023/06/25 12:03:41;;;;;;;8.57;5.60;;;;;;;;;;5095338;28;20077;-59
2023/06/25 12:06:27;;;;;;;7.65;5.38;;;;;;;;;;5095420;28;20462;-59
2023/06/25 12:09:12;;;;;;;8.18;5.72;;;;;;;;;;5095074;28;20122;-59
2023/06/25 12:11:58;;;;;;;8.25;5.80;;;;;;;;;;5095041;28;20409;-59
2023/06/25 12:14:44;;;;;;;10.45;5.95;;;;;;;;;;5079289;28;20032;-59
2023/06/25 12:17:30;;;;;;;10.77;5.80;;;;;;;;;;5095241;28;20020;-59
2023/06/25 12:20:16;;;;;;;8.48;5.75;;;;;;;;;;5094986;28;20028;-59
2023/06/25 12:23:01;;;;;;;9.02;6.18;;;;;;;;;;5094958;28;20076;-68
2023/06/25 12:25:47;;;;;;;9.52;5.85;;;;;;;;;;5095048;28;20119;-69
2023/06/25 12:28:32;;;;;;;7.68;5.30;;;;;;;;;;5094807;28;20028;-67
2023/06/25 12:31:18;;;;;;;8.75;5.38;;;;;;;;;;5094861;28;20032;-66
2023/06/25 12:34:03;;;;;;;8.65;6.05;;;;;;;;;;5094242;28;20490;-64
2023/06/25 12:36:49;;;;;;;8.45;5.75;;;;;;;;;;5094818;28;20035;-69
2023/06/25 12:39:34;;;;;;;7.57;5.68;;;;;;;;;;5094503;28;20060;-71
2023/06/25 12:42:20;;;;;;;8.93;6.28;;;;;;;;;;5094524;28;20099;-71
2023/06/25 12:45:06;;;;;;;10.07;6.05;;;;;;;;;;5093863;28;20115;-72
2023/06/25 12:47:52;;;;;;;8.52;5.97;;;;;;;;;;5092994;28;20020;-71
2023/06/25 12:50:37;;;;;;;8.05;5.90;;;;;;;;;;5094297;28;20032;-71
2023/06/25 12:53:23;;;;;;;8.60;5.75;;;;;;;;;;5093682;28;20024;-70
2023/06/25 12:56:08;;;;;;;9.70;6.38;;;;;;;;;;5094349;28;20489;-71
2023/06/25 12:58:54;;;;;;;8.93;6.38;;;;;;;;;;5078650;28;20036;-67
2023/06/25 13:01:40;;;;;;;7.72;5.35;;;;;;;;;;5093929;28;20354;-66
2023/06/25 13:04:26;;;;;;;10.68;6.40;;;;;;;;;;5093102;28;20058;-66
2023/06/25 13:07:11;;;;;;;9.88;5.60;;;;;;;;;;5094024;28;20161;-65
2023/06/25 13:09:57;;;;;;;10.10;6.10;;;;;;;;;;5093225;28;20047;-64
2023/06/25 13:12:42;;;;;;;10.65;5.53;;;;;;;;;;5094034;28;20020;-71
2023/06/25 13:15:28;;;;;;;9.27;5.15;;;;;;;;;;5094018;28;20032;-69
2023/06/25 13:18:13;;;;;;;8.82;5.88;;;;;;;;;;5092771;28;20024;-70
2023/06/25 13:20:59;;;;;;;9.68;6.82;;;;;;;;;;5078479;28;20032;-70
2023/06/25 13:23:45;;;;;;;11.60;6.18;;;;;;;;;;5093956;28;20118;-70
2023/06/25 13:26:31;;;;;;;8.55;5.93;;;;;;;;;;5093524;28;20520;-70
2023/06/25 13:29:16;;;;;;;8.40;5.63;;;;;;;;;;5093591;28;20032;-70
2023/06/25 13:32:02;;;;;;;7.97;5.30;;;;;;;;;;5093779;28;20031;-76
2023/06/25 13:34:47;;;;;;;7.93;6.35;;;;;;;;;;5093395;28;20144;-70
2023/06/25 13:37:33;;;;;;;7.50;5.25;;;;;;;;;;5093504;28;20032;-69
2023/06/25 13:40:18;;;;;;;9.77;5.75;;;;;;;;;;5093598;28;20375;-70
2023/06/25 13:43:04;;;;;;;8.05;5.43;;;;;;;;;;5093431;28;20034;-70
2023/06/25 13:45:49;;;;;;;8.50;5.18;;;;;;;;;;5093520;28;20112;-70
2023/06/25 13:48:35;;;;;;;8.23;6.03;;;;;;;;;;5093111;28;20028;-70
2023/06/25 13:51:21;;;;;;;8.80;6.03;;;;;;;;;;5093535;28;20110;-70
2023/06/25 13:54:06;;;;;;;10.10;5.72;;;;;;;;;;5093933;28;20024;-70
2023/06/25 13:56:52;;;;;;;8.07;5.75;;;;;;;;;;5093404;28;20081;-70
2023/06/25 13:59:37;;;;;;;8.30;6.07;;;;;;;;;;5093280;28;20373;-71
2023/06/25 14:02:23;;;;;;;8.18;5.50;;;;;;;;;;5093241;28;20062;-69
2023/06/25 14:05:08;;;;;;;8.77;5.88;;;;;;;;;;5093514;28;20082;-69
2023/06/25 14:07:56;;;;;;;7.80;5.18;;;;;;;;;;5093167;28;20082;-70
2023/06/25 14:10:42;;;;;;;10.63;7.00;;;;;;;;;;5093304;28;20028;-76
2023/06/25 14:13:27;;;;;;;8.95;5.72;;;;;;;;;;5093506;28;20042;-75
2023/06/25 14:16:13;;;;;;;9.73;5.78;;;;;;;;;;5093022;28;20077;-76
2023/06/25 14:18:59;;;;;;;8.95;6.03;;;;;;;;;;5092682;28;20050;-75
2023/06/25 14:21:45;;;;;;;8.95;5.60;;;;;;;;;;5091942;28;20124;-77
2023/06/25 14:24:31;;;;;;;7.93;5.60;;;;;;;;;;5092952;28;20398;-76
2023/06/25 14:27:17;;;;;;;9.45;6.10;;;;;;;;;;5092968;28;20022;-77
2023/06/25 14:30:03;;;;;;;9.00;6.07;;;;;;;;;;5092812;28;20119;-67
2023/06/25 14:32:48;;;;;;;9.98;6.10;;;;;;;;;;5091668;28;20028;-67
2023/06/25 14:35:34;;;;;;;9.25;6.03;;;;;;;;;;5092930;28;20056;-67
2023/06/25 14:38:20;;;;;;;8.57;5.90;;;;;;;;;;5092995;28;20064;-67
2023/06/25 14:41:05;;;;;;;7.95;5.85;;;;;;;;;;5092714;28;20483;-67
2023/06/25 14:43:51;;;;;;;8.18;5.28;;;;;;;;;;5092865;28;20068;-67
2023/06/25 14:46:36;;;;;;;8.57;5.70;;;;;;;;;;5092810;28;20113;-73
2023/06/25 14:49:22;;;;;;;8.30;6.22;;;;;;;;;;5092507;28;20125;-70
2023/06/25 14:52:07;;;;;;;8.52;5.85;;;;;;;;;;5092547;28;20032;-70
2023/06/25 14:54:53;;;;;;;7.47;5.20;;;;;;;;;;5092710;28;20028;-70
2023/06/25 14:57:39;;;;;;;7.95;5.25;;;;;;;;;;5092294;28;20032;-69
2023/06/25 15:00:25;;;;;;;9.85;6.40;;;;;;;;;;5092798;28;20059;-69
2023/06/25 15:03:10;;;;;;;8.52;6.00;;;;;;;;;;5092566;28;20073;-70
2023/06/25 15:05:56;;;;;;;8.85;5.95;;;;;;;;;;5092419;28;20085;-67
2023/06/25 15:08:42;;;;;;;7.78;5.28;;;;;;;;;;5092392;28;20455;-70
2023/06/25 15:11:27;;;;;;;9.23;5.88;;;;;;;;;;5092074;28;20031;-70
2023/06/25 15:14:13;;;;;;;9.75;5.65;;;;;;;;;;5092684;28;20103;-71
2023/06/25 15:16:59;;;;;;;8.13;5.50;;;;;;;;;;5096156;28;20107;-71
2023/06/25 15:19:45;;;;;;;7.47;5.55;;;;;;;;;;5095273;28;20051;-71
2023/06/25 15:22:30;;;;;;;7.05;5.07;;;;;;;;;;5095630;28;20024;-76
2023/06/25 15:25:16;;;;;;;7.55;5.40;;;;;;;;;;5096226;28;20051;-66
2023/06/25 15:28:01;;;;;;;8.38;5.45;;;;;;;;;;5095902;28;20016;-66
2023/06/25 15:30:47;;;;;;;8.27;5.78;;;;;;;;;;5095408;28;20047;-66
2023/06/25 15:33:32;;;;;;;7.63;5.65;;;;;;;;;;5095448;28;20020;-65
2023/06/25 15:36:19;;;;;;;8.25;5.75;;;;;;;;;;5095937;28;20071;-66
2023/06/25 15:39:05;;;;;;;9.65;5.85;;;;;;;;;;5094832;28;20107;-66
2023/06/25 15:41:51;;;;;;;8.18;5.47;;;;;;;;;;5095863;28;20027;-72
2023/06/25 15:44:37;;;;;;;9.18;6.13;;;;;;;;;;5094448;28;20048;-70
2023/06/25 15:47:22;;;;;;;7.93;5.47;;;;;;;;;;5095803;28;20146;-71
2023/06/25 15:50:08;;;;;;;8.70;5.63;;;;;;;;;;5095502;28;20119;-70
2023/06/25 15:52:54;;;;;;;7.38;4.95;;;;;;;;;;5096211;28;20031;-72
2023/06/25 15:55:39;;;;;;;8.25;6.13;;;;;;;;;;5096174;28;20136;-70
2023/06/25 15:58:25;;;;;;;7.75;5.20;;;;;;;;;;5095659;28;20030;-69
2023/06/25 16:01:10;;;;;;;7.97;5.60;;;;;;;;;;5095058;28;20027;-66
2023/06/25 16:03:56;;;;;;;7.88;5.30;;;;;;;;;;5095285;28;20063;-67
2023/06/25 16:06:42;;;;;;;10.10;6.65;;;;;;;;;;5095379;28;20102;-66
2023/06/25 16:09:27;;;;;;;10.75;5.60;;;;;;;;;;5095185;28;20040;-66
2023/06/25 16:12:13;;;;;;;10.07;6.03;;;;;;;;;;5095433;28;20028;-65
2023/06/25 16:14:59;;;;;;;10.32;5.68;;;;;;;;;;5094964;28;20043;-66
2023/06/25 16:17:44;;;;;;;8.02;5.20;;;;;;;;;;5095149;28;20024;-73
2023/06/25 16:20:30;;;;;;;8.88;6.00;;;;;;;;;;5095116;28;20028;-70
2023/06/25 16:23:15;;;;;;;8.25;5.30;;;;;;;;;;5079122;28;20035;-69
2023/06/25 16:26:01;;;;;;;9.18;5.47;;;;;;;;;;5094865;28;20370;-69
2023/06/25 16:28:46;;;;;;;8.90;5.88;;;;;;;;;;5094690;28;20462;-69
2023/06/25 16:31:32;;;;;;;7.38;5.07;;;;;;;;;;5094682;28;20035;-69
2023/06/25 16:34:17;;;;;;;8.82;5.68;;;;;;;;;;5094813;28;20036;-69